Time;durP1;ratioP1;P1;durP2;ratioP2;P2;SDS_P1;SDS_P2;PMS_P1;PMS_P2;Temp;Humidity;BMP_temperature;BMP_pressure;BME280_temperature;BME280_humidity;BME280_pressure;Samples;Min_cycle;Max_cycle;Signal;HPM_P1;HPM_P2
2023/09/14 00:00:49;;;;;;;6.18;2.30;;;13.80;99.90;;;;;;4953776;28;20518;-79
2023/09/14 00:03:15;;;;;;;4.47;2.20;;;13.80;99.90;;;;;;4987082;28;20034;-79
2023/09/14 00:05:44;;;;;;;4.35;2.53;;;13.80;99.90;;;;;;4970400;28;20565;-78
2023/09/14 00:08:10;;;;;;;6.13;2.10;;;13.60;99.90;;;;;;4975906;28;20816;-79
2023/09/14 00:10:36;;;;;;;8.30;1.92;;;13.60;99.90;;;;;;4955628;28;20034;-79
2023/09/14 00:13:02;;;;;;;3.85;2.00;;;13.80;99.90;;;;;;4971715;28;20082;-79
2023/09/14 00:15:28;;;;;;;6.47;2.22;;;13.90;99.90;;;;;;4975275;28;20034;-79
2023/09/14 00:17:53;;;;;;;4.55;2.10;;;13.80;99.90;;;;;;4973022;28;20094;-79
2023/09/14 00:20:22;;;;;;;4.88;2.20;;;13.50;99.90;;;;;;4958492;28;20566;-78
2023/09/14 00:22:52;;;;;;;4.68;2.53;;;13.40;99.90;;;;;;4971242;28;20043;-80
2023/09/14 00:25:18;;;;;;;6.93;2.30;;;13.40;99.90;;;;;;4973701;28;20041;-79
2023/09/14 00:27:43;;;;;;;3.22;2.30;;;13.40;99.90;;;;;;4976925;28;20042;-79
2023/09/14 00:30:09;;;;;;;5.07;2.30;;;13.30;99.90;;;;;;4974249;28;20053;-79
2023/09/14 00:32:39;;;;;;;8.65;2.78;;;13.30;99.90;;;;;;4978109;28;20035;-79
2023/09/14 00:35:12;;;;;;;5.38;2.80;;;13.20;99.90;;;;;;4972989;28;20041;-79
2023/09/14 00:37:37;;;;;;;5.18;2.75;;;13.20;99.90;;;;;;4970081;28;20046;-79
2023/09/14 00:40:06;;;;;;;6.10;2.75;;;13.30;99.90;;;;;;4959298;28;20038;-79
2023/09/14 00:42:43;;;;;;;9.38;2.70;;;13.30;99.90;;;;;;4969750;28;20605;-79
2023/09/14 00:45:09;;;;;;;5.10;2.28;;;13.20;99.90;;;;;;4975505;28;20487;-79
2023/09/14 00:47:35;;;;;;;8.45;2.50;;;13.10;99.90;;;;;;4976944;28;20035;-78
2023/09/14 00:50:02;;;;;;;13.48;2.08;;;13.10;99.90;;;;;;4974005;28;20035;-79
2023/09/14 00:52:28;;;;;;;7.28;2.58;;;13.00;99.90;;;;;;4972541;28;20499;-78
2023/09/14 00:54:53;;;;;;;11.43;2.60;;;12.90;99.90;;;;;;4973686;28;20125;-79
2023/09/14 00:57:20;;;;;;;6.82;3.20;;;12.90;99.90;;;;;;4971206;28;20827;-79
2023/09/14 00:59:46;;;;;;;5.30;2.90;;;12.80;99.90;;;;;;4958536;28;20048;-78
2023/09/14 01:02:11;;;;;;;5.13;2.40;;;12.90;99.90;;;;;;4970223;28;20390;-79
2023/09/14 01:04:37;;;;;;;9.57;2.63;;;12.70;99.90;;;;;;4972905;28;20101;-78
2023/09/14 01:07:03;;;;;;;5.68;2.70;;;12.80;99.90;;;;;;4954321;28;20157;-80
2023/09/14 01:09:29;;;;;;;9.57;2.83;;;12.80;99.90;;;;;;4972704;28;20070;-78
2023/09/14 01:11:55;;;;;;;8.38;2.65;;;12.80;99.90;;;;;;4970375;28;20072;-78
2023/09/14 01:14:25;;;;;;;4.38;2.60;;;12.80;99.90;;;;;;4972572;28;20398;-78
2023/09/14 01:17:01;;;;;;;8.23;2.20;;;12.80;99.90;;;;;;4972198;28;20038;-80
2023/09/14 01:19:35;;;;;;;;;;;12.70;99.90;;;;;;5002599;28;20063;-80
2023/09/14 01:22:42;;;;;;;4.50;2.65;;;12.70;99.90;;;;;;4987029;28;20005;-80
2023/09/14 01:25:19;;;;;;;7.45;2.65;;;12.60;99.90;;;;;;4968363;28;20498;-80
2023/09/14 01:27:45;;;;;;;10.32;2.80;;;12.60;99.90;;;;;;4956232;28;20545;-79
2023/09/14 01:30:11;;;;;;;12.32;3.97;;;12.50;99.90;;;;;;4969520;28;20043;-77
2023/09/14 01:32:36;;;;;;;8.45;2.85;;;12.60;99.90;;;;;;4970480;28;20042;-80
2023/09/14 01:35:03;;;;;;;6.47;2.72;;;12.60;99.90;;;;;;4973418;28;20036;-78
2023/09/14 01:37:29;;;;;;;5.85;2.42;;;12.50;99.90;;;;;;4972550;28;20807;-78
2023/09/14 01:39:55;;;;;;;6.22;3.78;;;12.50;99.90;;;;;;4969818;28;20027;-78
2023/09/14 01:42:21;;;;;;;10.18;3.03;;;12.40;99.90;;;;;;4972971;28;20038;-78
2023/09/14 01:44:47;;;;;;;11.35;3.25;;;12.40;99.90;;;;;;4975522;28;20506;-78
2023/09/14 01:47:12;;;;;;;9.55;2.83;;;12.40;99.90;;;;;;4971081;28;20053;-78
2023/09/14 01:49:38;;;;;;;12.82;3.05;;;12.40;99.90;;;;;;4969578;28;20503;-79
2023/09/14 01:52:03;;;;;;;9.73;3.30;;;12.40;99.90;;;;;;4968522;28;20378;-78
2023/09/14 01:54:29;;;;;;;7.95;3.20;;;12.40;99.90;;;;;;4955463;28;20435;-79
2023/09/14 01:56:54;;;;;;;8.50;3.45;;;12.40;99.90;;;;;;4954541;28;20085;-79
2023/09/14 01:59:20;;;;;;;7.45;2.80;;;12.40;99.90;;;;;;4932785;28;1087863;-78
2023/09/14 02:01:46;;;;;;;7.78;3.90;;;12.40;99.90;;;;;;4953745;28;20033;-78
2023/09/14 02:04:12;;;;;;;3.90;2.85;;;12.30;99.90;;;;;;4954267;28;20134;-78
2023/09/14 02:06:37;;;;;;;10.15;3.40;;;12.30;99.90;;;;;;4972601;28;20164;-78
2023/09/14 02:09:03;;;;;;;5.70;2.97;;;12.20;99.90;;;;;;4945866;28;20128;-78
2023/09/14 02:11:28;;;;;;;9.60;2.67;;;12.20;99.90;;;;;;4972162;28;20053;-78
2023/09/14 02:13:54;;;;;;;10.48;2.75;;;12.10;99.90;;;;;;4972197;28;20520;-78
2023/09/14 02:16:19;;;;;;;8.68;3.03;;;12.30;99.90;;;;;;4974509;28;20031;-79
2023/09/14 02:18:45;;;;;;;10.93;3.22;;;12.30;99.90;;;;;;4968482;28;20027;-78
2023/09/14 02:21:11;;;;;;;5.63;3.17;;;12.20;99.90;;;;;;4969506;28;20049;-79
2023/09/14 02:23:37;;;;;;;4.25;2.00;;;12.10;99.90;;;;;;4970866;28;20053;-78
2023/09/14 02:26:02;;;;;;;6.80;3.08;;;12.20;99.90;;;;;;4971435;28;20531;-78
2023/09/14 02:28:28;;;;;;;6.32;2.00;;;12.20;99.90;;;;;;4971456;28;20035;-79
2023/09/14 02:30:53;;;;;;;4.53;1.80;;;12.20;99.90;;;;;;4969460;28;20050;-79
2023/09/14 02:33:19;;;;;;;2.53;1.80;;;12.20;99.90;;;;;;4974567;28;20394;-78
2023/09/14 02:35:50;;;;;;;3.33;2.50;;;12.20;99.90;;;;;;4969900;28;20039;-78
2023/09/14 02:38:16;;;;;;;2.40;1.90;;;12.40;99.90;;;;;;4968000;28;20042;-78
2023/09/14 02:40:42;;;;;;;4.45;2.58;;;12.50;99.90;;;;;;4959101;28;20039;-78
2023/09/14 02:43:07;;;;;;;6.57;2.80;;;12.50;99.90;;;;;;4986819;28;20034;-78
2023/09/14 02:45:33;;;;;;;9.30;3.30;;;12.30;99.90;;;;;;4968319;28;20030;-78
2023/09/14 02:47:58;;;;;;;7.65;3.20;;;12.30;99.90;;;;;;4970045;28;20499;-79
2023/09/14 02:50:24;;;;;;;8.60;2.95;;;12.40;99.90;;;;;;4971825;28;20043;-78
2023/09/14 02:52:49;;;;;;;7.65;3.08;;;12.40;99.90;;;;;;4973126;28;20118;-78
2023/09/14 02:55:15;;;;;;;7.50;3.47;;;12.30;99.90;;;;;;4951776;28;20464;-78
2023/09/14 02:57:41;;;;;;;9.43;3.42;;;12.30;99.90;;;;;;4953915;28;20042;-79
2023/09/14 03:00:07;;;;;;;8.52;3.42;;;12.30;99.90;;;;;;4956423;28;20062;-78
2023/09/14 03:02:33;;;;;;;5.60;2.38;;;12.40;99.90;;;;;;4968814;28;20038;-78
2023/09/14 03:04:59;;;;;;;4.32;2.70;;;12.70;99.90;;;;;;4966106;28;20037;-79
2023/09/14 03:07:24;;;;;;;2.08;1.73;;;12.90;99.90;;;;;;4967119;28;20536;-78
2023/09/14 03:09:50;;;;;;;6.75;2.80;;;12.80;99.90;;;;;;4968018;28;20391;-79
2023/09/14 03:12:15;;;;;;;7.47;2.38;;;12.70;99.90;;;;;;4955038;28;20501;-78
2023/09/14 03:14:41;;;;;;;4.68;1.88;;;12.60;99.90;;;;;;4952883;28;20546;-79
2023/09/14 03:17:06;;;;;;;2.47;1.67;;;12.60;99.90;;;;;;4964969;28;20039;-78
2023/09/14 03:19:32;;;;;;;5.45;2.92;;;12.60;99.90;;;;;;4970860;28;20442;-78
2023/09/14 03:21:57;;;;;;;7.47;3.90;;;12.60;99.90;;;;;;4966469;28;20030;-78
2023/09/14 03:24:23;;;;;;;6.68;3.55;;;12.60;99.90;;;;;;4970809;28;20030;-78
2023/09/14 03:26:49;;;;;;;8.02;3.33;;;12.60;99.90;;;;;;4956546;28;20030;-78
2023/09/14 03:29:14;;;;;;;9.20;3.63;;;12.50;99.90;;;;;;4949878;28;20093;-78
2023/09/14 03:31:40;;;;;;;7.63;3.92;;;12.70;99.90;;;;;;4950703;28;20113;-77
2023/09/14 03:34:07;;;;;;;3.42;2.17;;;12.60;99.90;;;;;;4952811;28;20031;-78
2023/09/14 03:36:32;;;;;;;3.60;2.42;;;12.50;99.90;;;;;;4969592;28;20026;-78
2023/09/14 03:38:58;;;;;;;5.28;2.70;;;12.60;99.90;;;;;;4966362;28;20034;-78
2023/09/14 03:41:23;;;;;;;9.73;3.17;;;12.50;99.90;;;;;;4969022;28;20062;-78
2023/09/14 03:43:49;;;;;;;6.10;3.30;;;12.60;99.90;;;;;;4967167;28;20030;-78
2023/09/14 03:46:15;;;;;;;5.22;3.65;;;12.50;99.90;;;;;;4946354;28;20039;-78
2023/09/14 03:48:40;;;;;;;17.55;3.78;;;12.50;99.90;;;;;;4972824;28;20064;-78
2023/09/14 03:51:06;;;;;;;9.30;4.57;;;12.50;99.90;;;;;;4970489;28;20081;-78
2023/09/14 03:53:32;;;;;;;10.35;4.82;;;12.50;99.90;;;;;;4984280;28;20038;-78
2023/09/14 03:55:59;;;;;;;7.88;4.28;;;12.40;99.90;;;;;;4971546;28;20372;-78
2023/09/14 03:58:25;;;;;;;15.02;4.78;;;12.40;99.90;;;;;;4968822;28;20035;-77
2023/09/14 04:00:50;;;;;;;15.23;4.68;;;12.50;99.90;;;;;;4949307;28;20031;-78
2023/09/14 04:03:17;;;;;;;5.95;2.30;;;12.60;99.90;;;;;;4968622;28;20041;-77
2023/09/14 04:05:43;;;;;;;6.95;3.38;;;12.60;99.90;;;;;;4967726;28;20599;-78
2023/09/14 04:08:09;;;;;;;10.45;3.92;;;12.60;99.90;;;;;;4952108;28;20057;-78
2023/09/14 04:10:38;;;;;;;13.45;4.85;;;12.70;99.90;;;;;;4965895;28;20499;-77
2023/09/14 04:13:27;;;;;;;6.88;3.95;;;12.60;99.90;;;;;;4969457;28;20039;-78
2023/09/14 04:15:52;;;;;;;6.78;3.97;;;12.70;99.90;;;;;;4966927;28;20687;-78
2023/09/14 04:18:18;;;;;;;14.05;4.25;;;12.70;99.90;;;;;;4970474;28;20034;-78
2023/09/14 04:20:44;;;;;;;7.97;4.05;;;12.70;99.90;;;;;;4972424;28;20038;-78
2023/09/14 04:23:09;;;;;;;12.90;4.43;;;12.70;99.90;;;;;;4955602;28;20395;-79
2023/09/14 04:25:36;;;;;;;7.95;3.88;;;12.70;99.90;;;;;;4970514;28;20041;-78
2023/09/14 04:28:02;;;;;;;6.40;3.88;;;12.70;99.90;;;;;;4973980;28;20030;-79
2023/09/14 04:30:28;;;;;;;11.65;3.50;;;12.70;99.90;;;;;;4974693;28;20196;-78
2023/09/14 04:32:54;;;;;;;10.73;2.88;;;12.80;99.90;;;;;;4969591;28;20043;-79
2023/09/14 04:35:19;;;;;;;7.70;3.63;;;12.80;99.90;;;;;;4967140;28;20035;-78
2023/09/14 04:37:45;;;;;;;6.18;3.65;;;12.80;99.90;;;;;;4970257;28;20069;-79
2023/09/14 04:40:11;;;;;;;9.30;3.65;;;12.80;99.90;;;;;;4952167;28;20038;-78
2023/09/14 04:42:36;;;;;;;7.35;3.85;;;12.80;99.90;;;;;;4969897;28;20035;-79
2023/09/14 04:45:02;;;;;;;10.60;4.20;;;12.80;99.90;;;;;;4956271;28;20023;-79
2023/09/14 04:47:28;;;;;;;8.10;4.18;;;12.90;99.90;;;;;;4969021;28;20027;-78
2023/09/14 04:49:53;;;;;;;7.78;3.83;;;12.80;99.90;;;;;;4969128;28;20030;-78
2023/09/14 04:52:19;;;;;;;10.65;4.88;;;12.80;99.90;;;;;;4952239;28;20037;-78
2023/09/14 04:54:45;;;;;;;11.88;4.07;;;12.80;99.90;;;;;;4973974;28;20130;-79
2023/09/14 04:57:10;;;;;;;7.57;3.42;;;12.80;99.90;;;;;;4975127;28;20123;-78
2023/09/14 04:59:36;;;;;;;7.05;3.38;;;12.80;99.90;;;;;;4974213;28;20058;-78
2023/09/14 05:02:01;;;;;;;12.68;4.07;;;12.80;99.90;;;;;;4969182;28;20075;-78
2023/09/14 05:04:27;;;;;;;6.80;4.40;;;12.80;99.90;;;;;;4971997;28;20047;-78
2023/09/14 05:06:53;;;;;;;7.22;3.80;;;12.80;99.90;;;;;;4958754;28;20034;-79
2023/09/14 05:09:18;;;;;;;10.60;3.83;;;12.80;99.90;;;;;;4973043;28;20038;-77
2023/09/14 05:11:44;;;;;;;8.30;4.18;;;12.80;99.90;;;;;;4975662;28;20490;-79
2023/09/14 05:14:10;;;;;;;5.93;3.25;;;12.90;99.90;;;;;;4971743;28;20506;-78
2023/09/14 05:16:36;;;;;;;10.50;3.50;;;12.80;99.90;;;;;;4973146;28;20158;-79
2023/09/14 05:19:01;;;;;;;7.55;3.30;;;12.80;99.90;;;;;;4971914;28;20027;-78
2023/09/14 05:21:27;;;;;;;11.68;4.00;;;12.80;99.90;;;;;;4954676;28;20153;-78
2023/09/14 05:23:52;;;;;;;11.10;4.57;;;12.70;99.90;;;;;;4970154;28;20042;-77
2023/09/14 05:26:18;;;;;;;10.52;3.65;;;12.70;99.90;;;;;;4957944;28;20023;-77
2023/09/14 05:28:43;;;;;;;10.43;3.97;;;12.70;99.90;;;;;;4974730;28;20033;-77
2023/09/14 05:31:10;;;;;;;5.20;3.60;;;12.80;99.90;;;;;;4975367;28;20034;-77
2023/09/14 05:33:38;;;;;;;10.50;4.05;;;12.70;99.90;;;;;;4969479;28;20487;-77
2023/09/14 05:36:04;;;;;;;8.13;3.78;;;12.70;99.90;;;;;;4971972;28;20034;-76
2023/09/14 05:38:29;;;;;;;13.15;4.28;;;12.70;99.90;;;;;;4958301;28;20395;-78
2023/09/14 05:40:55;;;;;;;10.88;4.63;;;12.80;99.90;;;;;;4958438;28;21568;-78
2023/09/14 05:43:21;;;;;;;12.48;4.50;;;12.70;99.90;;;;;;4972686;28;20035;-77
2023/09/14 05:45:46;;;;;;;8.80;3.85;;;12.70;99.90;;;;;;4971765;28;20027;-77
2023/09/14 05:48:12;;;;;;;5.18;2.45;;;12.70;99.90;;;;;;4972418;28;20031;-76
2023/09/14 05:50:37;;;;;;;11.75;4.72;;;12.90;99.90;;;;;;4973604;28;20585;-77
2023/09/14 05:53:03;;;;;;;12.57;4.90;;;12.90;99.90;;;;;;4971487;28;20399;-78
2023/09/14 05:55:29;;;;;;;13.48;4.70;;;12.90;99.90;;;;;;4970056;28;20113;-77
2023/09/14 05:57:54;;;;;;;9.55;4.75;;;12.90;99.90;;;;;;4972491;28;20722;-77
2023/09/14 06:00:20;;;;;;;9.15;4.57;;;12.90;99.90;;;;;;4972983;28;20057;-77
2023/09/14 06:02:45;;;;;;;11.25;5.15;;;13.00;99.90;;;;;;4970080;28;20061;-77
2023/09/14 06:05:11;;;;;;;9.10;4.60;;;13.10;99.90;;;;;;4967707;28;20098;-76
2023/09/14 06:07:37;;;;;;;9.90;4.68;;;13.20;99.90;;;;;;4953296;28;20031;-77
2023/09/14 06:10:03;;;;;;;16.30;5.90;;;13.20;99.90;;;;;;4960894;28;20043;-77
2023/09/14 06:12:29;;;;;;;11.68;5.85;;;13.20;99.90;;;;;;4968913;28;20027;-77
2023/09/14 06:14:56;;;;;;;14.93;5.50;;;13.30;99.90;;;;;;4956409;28;20039;-77
2023/09/14 06:17:21;;;;;;;10.40;5.50;;;13.30;99.90;;;;;;4952784;28;20034;-77
2023/09/14 06:19:47;;;;;;;7.95;4.80;;;13.30;99.90;;;;;;4975440;28;20085;-76
2023/09/14 06:22:12;;;;;;;12.00;5.40;;;13.30;99.90;;;;;;4970704;28;20039;-77
2023/09/14 06:24:38;;;;;;;13.27;5.00;;;13.40;99.90;;;;;;4972726;28;20852;-76
2023/09/14 06:27:04;;;;;;;9.75;5.40;;;13.40;99.90;;;;;;4972201;28;20034;-77
2023/09/14 06:29:29;;;;;;;10.40;5.65;;;13.40;99.90;;;;;;4953605;28;20038;-78
2023/09/14 06:31:55;;;;;;;9.07;5.53;;;13.50;99.90;;;;;;4971935;28;20108;-77
2023/09/14 06:34:21;;;;;;;9.93;5.50;;;13.50;99.90;;;;;;4953436;28;20061;-76
2023/09/14 06:36:46;;;;;;;10.43;5.32;;;13.60;99.90;;;;;;4971333;28;20222;-76
2023/09/14 06:39:13;;;;;;;15.25;5.78;;;13.60;99.90;;;;;;4955193;28;20442;-77
2023/09/14 06:41:38;;;;;;;9.00;4.90;;;13.70;99.90;;;;;;4973040;28;20672;-77
2023/09/14 06:44:04;;;;;;;13.18;6.15;;;13.80;99.90;;;;;;4955767;28;20101;-77
2023/09/14 06:46:30;;;;;;;2.88;2.45;;;13.90;99.90;;;;;;4970590;28;20165;-77
2023/09/14 06:48:55;;;;;;;16.90;5.55;;;14.00;99.90;;;;;;4967405;28;20038;-78
2023/09/14 06:51:21;;;;;;;7.90;4.88;;;14.00;99.90;;;;;;4979899;28;20030;-78
2023/09/14 06:53:47;;;;;;;17.23;5.78;;;14.10;99.90;;;;;;4970743;28;20026;-77
2023/09/14 06:56:13;;;;;;;17.42;7.90;;;14.10;99.90;;;;;;4970682;28;20035;-78
2023/09/14 06:58:38;;;;;;;12.57;6.38;;;14.20;99.90;;;;;;4954858;28;20027;-79
2023/09/14 07:01:05;;;;;;;11.52;6.25;;;14.30;99.90;;;;;;4970176;28;20046;-79
2023/09/14 07:03:31;;;;;;;11.63;5.78;;;14.40;99.90;;;;;;4968934;28;20517;-78
2023/09/14 07:05:57;;;;;;;15.32;6.45;;;14.50;99.90;;;;;;4957453;28;20031;-78
2023/09/14 07:08:22;;;;;;;14.55;6.35;;;14.60;99.90;;;;;;4971993;28;20056;-78
2023/09/14 07:10:49;;;;;;;16.27;6.60;;;14.70;99.90;;;;;;4972061;28;20510;-79
2023/09/14 07:13:15;;;;;;;18.70;7.22;;;14.70;99.90;;;;;;4975011;28;20039;-79
2023/09/14 07:15:40;;;;;;;15.40;7.00;;;14.80;99.90;;;;;;4956973;28;20118;-77
2023/09/14 07:18:06;;;;;;;16.00;6.78;;;14.90;99.90;;;;;;4954403;28;20039;-76
2023/09/14 07:20:32;;;;;;;15.32;7.38;;;15.00;99.90;;;;;;4973676;28;20101;-76
2023/09/14 07:22:57;;;;;;;14.63;7.63;;;15.20;99.90;;;;;;4970013;28;20489;-77
2023/09/14 07:25:23;;;;;;;15.00;8.75;;;15.40;99.90;;;;;;4969714;28;20027;-78
2023/09/14 07:27:48;;;;;;;13.40;8.00;;;15.40;99.90;;;;;;4969362;28;20037;-78
2023/09/14 07:30:14;;;;;;;12.38;6.95;;;15.50;99.90;;;;;;4955376;28;20097;-78
2023/09/14 07:32:40;;;;;;;14.10;6.95;;;15.60;99.90;;;;;;4973347;28;20038;-79
2023/09/14 07:35:07;;;;;;;16.00;7.13;;;15.70;99.90;;;;;;4970308;28;21449;-78
2023/09/14 07:37:33;;;;;;;11.50;6.43;;;15.80;99.90;;;;;;4972061;28;20581;-78
2023/09/14 07:39:59;;;;;;;11.35;6.25;;;16.00;99.90;;;;;;4971994;28;20022;-79
2023/09/14 07:42:24;;;;;;;13.50;7.00;;;16.00;99.90;;;;;;4974016;28;20030;-78
2023/09/14 07:44:50;;;;;;;8.90;5.78;;;16.20;99.90;;;;;;4955021;28;20074;-78
2023/09/14 07:47:16;;;;;;;11.80;6.78;;;16.30;99.90;;;;;;4974163;28;20065;-79
2023/09/14 07:49:45;;;;;;;15.52;7.28;;;16.40;99.90;;;;;;4958417;28;20035;-79
2023/09/14 07:52:11;;;;;;;13.52;7.05;;;16.60;99.90;;;;;;4970507;28;20557;-78
2023/09/14 07:54:36;;;;;;;14.05;7.40;;;16.70;99.90;;;;;;4968463;28;20041;-78
2023/09/14 07:57:02;;;;;;;13.55;6.72;;;16.80;99.90;;;;;;4968829;28;20054;-78
2023/09/14 07:59:28;;;;;;;12.55;6.53;;;17.00;99.90;;;;;;4969004;28;20159;-79
2023/09/14 08:01:53;;;;;;;10.77;7.13;;;17.00;99.90;;;;;;4967636;28;20102;-79
2023/09/14 08:04:19;;;;;;;9.98;6.15;;;17.20;99.90;;;;;;4973929;28;20070;-78
2023/09/14 08:06:44;;;;;;;18.40;7.72;;;17.30;99.90;;;;;;4958353;28;20045;-78
2023/09/14 08:09:10;;;;;;;13.68;6.45;;;17.40;99.90;;;;;;4974369;28;20098;-79
2023/09/14 08:11:36;;;;;;;10.32;6.53;;;17.50;99.90;;;;;;4978413;28;20500;-78
2023/09/14 08:14:02;;;;;;;8.07;4.68;;;17.50;99.90;;;;;;4980018;28;20035;-79
2023/09/14 08:16:32;;;;;;;6.90;4.65;;;17.50;99.90;;;;;;4972515;28;20132;-78
2023/09/14 08:18:58;;;;;;;11.00;6.40;;;17.60;99.90;;;;;;4975815;28;20038;-79
2023/09/14 08:21:23;;;;;;;15.15;6.88;;;17.60;99.90;;;;;;4971949;28;20023;-79
2023/09/14 08:23:49;;;;;;;13.43;6.95;;;17.70;99.90;;;;;;4976330;28;20205;-78
2023/09/14 08:26:15;;;;;;;10.40;6.70;;;17.70;99.90;;;;;;4972887;28;20177;-78
2023/09/14 08:28:40;;;;;;;7.78;4.70;;;17.80;99.90;;;;;;4974670;28;20034;-78
2023/09/14 08:31:06;;;;;;;6.10;4.30;;;17.80;99.90;;;;;;4974551;28;20114;-78
2023/09/14 08:33:32;;;;;;;8.77;5.32;;;17.90;99.90;;;;;;4977064;28;20070;-78
2023/09/14 08:35:57;;;;;;;15.05;5.43;;;17.90;99.90;;;;;;4975026;28;20679;-78
2023/09/14 08:38:25;;;;;;;9.57;4.85;;;17.90;99.90;;;;;;4957272;28;20038;-78
2023/09/14 08:40:53;;;;;;;9.48;4.75;;;18.00;99.90;;;;;;4975737;28;20377;-78
2023/09/14 08:43:19;;;;;;;9.18;5.13;;;18.10;99.90;;;;;;4976089;28;20031;-78
2023/09/14 08:45:45;;;;;;;12.70;5.45;;;18.30;99.90;;;;;;4978312;28;20042;-78
2023/09/14 08:48:10;;;;;;;8.45;4.18;;;18.20;99.90;;;;;;4976812;28;20031;-79
2023/09/14 08:50:36;;;;;;;4.18;2.72;;;18.40;99.90;;;;;;4972967;28;20117;-79
2023/09/14 08:53:01;;;;;;;5.03;3.50;;;18.60;99.90;;;;;;4961290;28;20073;-80
2023/09/14 08:55:34;;;;;;;4.30;2.35;;;18.70;99.90;;;;;;4954922;28;20027;-79
2023/09/14 08:58:00;;;;;;;5.72;3.10;;;19.00;99.90;;;;;;4976626;28;20037;-80
2023/09/14 09:00:28;;;;;;;4.13;3.33;;;19.30;99.90;;;;;;4974516;28;20051;-79
2023/09/14 09:02:54;;;;;;;5.03;3.47;;;19.50;99.90;;;;;;4953199;28;20450;-80
2023/09/14 09:05:20;;;;;;;5.60;3.28;;;19.50;99.90;;;;;;4956434;28;20131;-80
2023/09/14 09:07:48;;;;;;;8.88;3.63;;;19.70;99.90;;;;;;4979683;28;20487;-79
2023/09/14 09:10:21;;;;;;;4.25;2.70;;;19.90;99.90;;;;;;4970167;28;20042;-80
2023/09/14 09:12:49;;;;;;;3.08;2.45;;;20.30;99.90;;;;;;4975206;28;20047;-79
2023/09/14 09:15:15;;;;;;;3.85;2.50;;;20.70;99.90;;;;;;4971316;28;20162;-81
2023/09/14 09:17:41;;;;;;;7.45;3.20;;;21.00;99.90;;;;;;4977259;28;20470;-79
2023/09/14 09:20:13;;;;;;;5.40;2.75;;;21.00;99.90;;;;;;4975354;28;20031;-80
2023/09/14 09:22:41;;;;;;;5.68;2.58;;;21.20;99.90;;;;;;4974248;28;20034;-80
2023/09/14 09:25:07;;;;;;;6.47;3.15;;;21.30;99.90;;;;;;4973747;28;20027;-81
2023/09/14 09:27:32;;;;;;;5.80;2.72;;;21.50;99.90;;;;;;4957158;28;20030;-81
2023/09/14 09:29:59;;;;;;;4.97;3.17;;;21.50;99.90;;;;;;4973979;28;20035;-82
2023/09/14 09:32:24;;;;;;;4.78;2.60;;;21.60;99.90;;;;;;4956949;28;20089;-79
2023/09/14 09:34:50;;;;;;;4.32;2.30;;;21.90;99.90;;;;;;4975067;28;20074;-82
2023/09/14 09:37:15;;;;;;;4.82;2.60;;;21.90;99.90;;;;;;4959403;28;20027;-80
2023/09/14 09:39:41;;;;;;;5.88;2.45;;;21.90;99.90;;;;;;4973401;28;20132;-82
2023/09/14 09:42:09;;;;;;;6.28;2.38;;;22.10;99.90;;;;;;4974252;28;20034;-81
2023/09/14 09:44:37;;;;;;;4.78;1.77;;;22.10;99.90;;;;;;4975039;28;20027;-82
2023/09/14 09:47:02;;;;;;;3.67;2.25;;;22.20;99.90;;;;;;4976119;28;20469;-81
2023/09/14 09:49:28;;;;;;;4.40;2.13;;;22.70;99.90;;;;;;4959341;28;20112;-82
2023/09/14 09:51:54;;;;;;;6.05;2.55;;;23.00;99.90;;;;;;4978487;28;20477;-82
2023/09/14 09:54:20;;;;;;;4.10;2.67;;;22.80;99.90;;;;;;4988565;28;20113;-82
2023/09/14 09:56:46;;;;;;;6.28;2.88;;;22.80;99.90;;;;;;4962425;28;20038;-82
2023/09/14 09:59:14;;;;;;;5.80;3.10;;;22.90;99.90;;;;;;4969231;28;20118;-79
2023/09/14 10:01:41;;;;;;;4.55;2.90;;;23.00;99.90;;;;;;4976099;28;20157;-80
2023/09/14 10:04:11;;;;;;;6.63;2.33;;;23.10;99.90;;;;;;4973189;28;20035;-82
2023/09/14 10:06:37;;;;;;;4.80;2.20;;;23.10;99.90;;;;;;4988086;28;20117;-81
2023/09/14 10:09:06;;;;;;;4.28;2.13;;;23.10;99.90;;;;;;4947545;28;20560;-80
2023/09/14 10:11:33;;;;;;;3.22;2.10;;;23.20;99.90;;;;;;4944149;28;20796;-81
2023/09/14 10:14:00;;;;;;;4.22;2.22;;;23.20;99.90;;;;;;4946744;28;20058;-80
2023/09/14 10:16:26;;;;;;;2.53;1.92;;;23.30;99.90;;;;;;4975899;28;20045;-81
2023/09/14 10:18:54;;;;;;;3.55;1.55;;;23.30;99.90;;;;;;4959498;28;20441;-80
2023/09/14 10:21:20;;;;;;;4.18;1.75;;;23.20;99.90;;;;;;4953567;28;20453;-80
2023/09/14 10:23:46;;;;;;;7.97;2.72;;;23.30;99.90;;;;;;4969491;28;20452;-81
2023/09/14 10:26:12;;;;;;;3.58;1.77;;;23.50;99.90;;;;;;4970968;28;20026;-81
2023/09/14 10:28:37;;;;;;;3.10;1.88;;;23.60;99.90;;;;;;4971330;28;20393;-81
2023/09/14 10:31:03;;;;;;;2.15;1.92;;;23.70;99.90;;;;;;4975983;28;20051;-81
2023/09/14 10:33:30;;;;;;;2.78;2.58;;;23.70;99.90;;;;;;4974204;28;20024;-81
2023/09/14 10:35:55;;;;;;;5.95;2.50;;;23.80;99.90;;;;;;4974854;28;20022;-81
2023/09/14 10:38:23;;;;;;;7.13;2.78;;;23.90;99.90;;;;;;4971298;28;20036;-81
2023/09/14 10:40:49;;;;;;;4.32;2.30;;;24.10;99.90;;;;;;4976533;28;20113;-80
2023/09/14 10:43:15;;;;;;;5.65;2.70;;;24.20;99.90;;;;;;4957088;28;20434;-81
2023/09/14 10:45:43;;;;;;;5.20;2.10;;;24.30;99.90;;;;;;4972313;28;20027;-80
2023/09/14 10:48:10;;;;;;;5.30;2.65;;;24.50;99.90;;;;;;4970417;28;20122;-81
2023/09/14 10:50:36;;;;;;;5.68;2.25;;;24.70;99.90;;;;;;4984278;28;20043;-81
2023/09/14 10:53:02;;;;;;;2.47;1.85;;;24.80;99.90;;;;;;4954607;28;20043;-81
2023/09/14 10:55:27;;;;;;;4.78;2.13;;;24.60;98.80;;;;;;4971241;28;20031;-81
2023/09/14 10:57:53;;;;;;;4.97;1.88;;;24.90;99.90;;;;;;4988123;28;20630;-81
2023/09/14 11:00:31;;;;;;;5.97;1.67;;;25.10;99.70;;;;;;4973199;28;20043;-82
2023/09/14 11:02:57;;;;;;;4.60;1.67;;;25.10;98.10;;;;;;4971999;28;20512;-81
2023/09/14 11:05:24;;;;;;;5.40;1.95;;;25.10;99.10;;;;;;4967918;28;20125;-81
2023/09/14 11:07:55;;;;;;;8.25;2.20;;;25.30;98.60;;;;;;4974172;28;20041;-82
2023/09/14 11:10:21;;;;;;;3.50;1.98;;;25.60;99.10;;;;;;4968809;28;20050;-83
2023/09/14 11:12:47;;;;;;;4.75;1.63;;;25.70;98.80;;;;;;4638067;28;9999781;-82
2023/09/14 11:15:16;;;;;;;3.20;1.40;;;25.70;97.90;;;;;;4970123;28;20126;-83
2023/09/14 11:17:45;;;;;;;3.58;1.90;;;25.80;97.70;;;;;;4967090;28;20093;-82
2023/09/14 11:20:22;;;;;;;6.53;1.80;;;26.00;97.40;;;;;;4967290;28;20145;-83
2023/09/14 11:22:48;;;;;;;4.30;1.75;;;26.30;97.30;;;;;;4281100;28;10000017;-83
2023/09/14 11:25:36;;;;;;;3.90;1.95;;;26.30;96.20;;;;;;4965995;28;20035;-83
2023/09/14 11:28:05;;;;;;;6.50;1.95;;;26.50;95.20;;;;;;4972385;28;20546;-83
2023/09/14 11:30:30;;;;;;;2.45;1.70;;;26.50;93.90;;;;;;4970512;28;20042;-83
2023/09/14 11:32:57;;;;;;;4.43;2.25;;;26.50;94.90;;;;;;4971421;28;20030;-84
2023/09/14 11:35:39;;;;;;;7.53;2.35;;;26.60;95.00;;;;;;4969062;28;20038;-83
2023/09/14 11:38:33;;;;;;;6.03;1.80;;;26.60;94.30;;;;;;4982374;28;20042;-84
2023/09/14 11:40:58;;;;;;;2.25;1.70;;;26.70;94.30;;;;;;4966028;28;20081;-84
2023/09/14 11:43:26;;;;;;;2.50;1.92;;;26.70;94.30;;;;;;4967757;28;20447;-83
2023/09/14 11:46:00;;;;;;;3.50;2.00;;;26.90;93.60;;;;;;4971179;28;20129;-84
2023/09/14 11:48:33;;;;;;;2.72;2.00;;;26.90;94.10;;;;;;4947266;28;20061;-84
2023/09/14 11:51:02;;;;;;;3.67;2.72;;;26.90;92.90;;;;;;4946460;28;20051;-81
2023/09/14 11:53:28;;;;;;;4.70;2.83;;;26.80;92.90;;;;;;4968076;28;20525;-82
2023/09/14 11:55:53;;;;;;;4.78;2.90;;;27.00;92.60;;;;;;4970045;28;20045;-81
2023/09/14 11:58:21;;;;;;;4.88;2.15;;;27.00;90.80;;;;;;4966176;28;20034;-81
2023/09/14 12:00:49;;;;;;;6.82;2.42;;;27.00;91.60;;;;;;4965134;28;20034;-81
2023/09/14 12:03:15;;;;;;;3.70;2.38;;;27.00;92.00;;;;;;4986645;28;20043;-82
2023/09/14 12:05:40;;;;;;;7.43;2.58;;;27.00;91.70;;;;;;4953989;28;20501;-81
2023/09/14 12:08:09;;;;;;;4.57;2.10;;;26.80;91.70;;;;;;4972196;28;20042;-82
2023/09/14 12:10:35;;;;;;;3.70;2.20;;;26.70;90.50;;;;;;4970447;28;20185;-81
2023/09/14 12:13:16;;;;;;;5.63;2.50;;;26.60;91.40;;;;;;4969063;28;20121;-82
2023/09/14 12:15:47;;;;;;;8.63;2.92;;;26.40;90.20;;;;;;4973239;28;20045;-82
2023/09/14 12:18:16;;;;;;;2.70;1.88;;;26.30;90.80;;;;;;4953688;28;20106;-82
2023/09/14 12:20:43;;;;;;;8.63;2.78;;;26.30;90.70;;;;;;4974175;28;20095;-86
2023/09/14 12:23:09;;;;;;;3.13;2.10;;;26.30;90.60;;;;;;4975024;28;20038;-87
2023/09/14 12:25:38;;;;;;;5.57;3.13;;;26.20;91.00;;;;;;4978796;28;20035;-85
2023/09/14 12:28:05;;;;;;;4.90;2.78;;;26.30;88.30;;;;;;4973707;28;20272;-85
2023/09/14 12:30:31;;;;;;;5.68;2.53;;;26.10;90.20;;;;;;4972653;28;20503;-86
2023/09/14 12:32:56;;;;;;;7.35;3.10;;;25.90;88.10;;;;;;4975442;28;20042;-84
2023/09/14 12:35:23;;;;;;;5.38;2.30;;;26.00;91.40;;;;;;4974398;28;20038;-84
2023/09/14 12:37:50;;;;;;;4.47;2.08;;;26.00;90.60;;;;;;4957834;28;20061;-84
2023/09/14 12:40:16;;;;;;;4.10;2.40;;;26.00;90.40;;;;;;4964247;28;20459;-84